createdAt,value
2023-04-07T00:00:26.747Z,-2.28
2023-04-07T00:01:26.753Z,-2.44
2023-04-07T00:02:26.806Z,-2.28
2023-04-07T00:04:26.900Z,-2.44
2023-04-07T00:05:26.766Z,-2.61
2023-04-07T00:06:26.793Z,-2.28
2023-04-07T00:07:26.764Z,-2.28
2023-04-07T00:08:26.769Z,-2
2023-04-07T00:10:26.774Z,-2
2023-04-07T00:11:26.780Z,-2.17
2023-04-07T00:12:26.753Z,-2
2023-04-07T00:13:26.875Z,-2.61
2023-04-07T00:15:26.762Z,-2
2023-04-07T00:17:26.844Z,-1.67
2023-04-07T00:19:26.790Z,-2.17
2023-04-07T00:21:26.781Z,-2.17
2023-04-07T00:22:26.797Z,-1.67
2023-04-07T00:23:26.769Z,-1.56
2023-04-07T00:24:33.696Z,-1.44
2023-04-07T00:25:26.772Z,-1.56
2023-04-07T00:26:26.790Z,-1.44
2023-04-07T00:28:26.777Z,-1.83
2023-04-07T00:29:26.790Z,-2.17
2023-04-07T00:31:26.835Z,-2.17
2023-04-07T00:32:26.818Z,-2.72
2023-04-07T00:33:26.770Z,-2.28
2023-04-07T00:34:26.761Z,-2.72
2023-04-07T00:35:26.823Z,-3.06
2023-04-07T00:37:26.778Z,-2.61
2023-04-07T00:38:26.805Z,-2.28
2023-04-07T00:40:26.777Z,-2.28
2023-04-07T00:41:26.772Z,-2
2023-04-07T00:43:26.768Z,-2.61
2023-04-07T00:44:26.771Z,-2.44
2023-04-07T00:45:26.760Z,-2.61
2023-04-07T00:46:26.790Z,-3.17
2023-04-07T00:47:26.808Z,-2.61
2023-04-07T00:49:26.770Z,-2.44
2023-04-07T00:51:26.782Z,-2.61
2023-04-07T00:52:26.769Z,-2.61
2023-04-07T00:53:26.786Z,-2.72
2023-04-07T00:54:26.800Z,-2.44
2023-04-07T00:55:26.770Z,-2.72
2023-04-07T00:56:26.773Z,-2.28
2023-04-07T00:57:26.771Z,-2.44
2023-04-07T00:58:26.786Z,-2.44
2023-04-07T00:59:26.801Z,-2.61
2023-04-07T01:01:26.946Z,-2.17
2023-04-07T01:02:27.241Z,-2.17
2023-04-07T01:03:27.011Z,-2.28
2023-04-07T01:05:26.784Z,-2
2023-04-07T01:07:26.801Z,-1.83
2023-04-07T01:08:26.783Z,-2
2023-04-07T01:10:26.817Z,-2
2023-04-07T01:11:26.778Z,-1.67
2023-04-07T01:12:26.785Z,-1.83
2023-04-07T01:14:26.779Z,-1.83
2023-04-07T01:15:26.770Z,-1.83
2023-04-07T01:16:26.789Z,-1.67
2023-04-07T01:17:26.825Z,-1.83
2023-04-07T01:18:26.773Z,-1.83
2023-04-07T01:19:26.780Z,-2.17
2023-04-07T01:20:26.778Z,-2
2023-04-07T01:21:26.794Z,-2.17
2023-04-07T01:22:26.776Z,-2.17
2023-04-07T01:24:26.793Z,-2
2023-04-07T01:26:26.802Z,-1.83
2023-04-07T01:27:26.775Z,-1.83
2023-04-07T01:28:26.782Z,-1.67
2023-04-07T01:30:26.802Z,-2.17
2023-04-07T01:32:26.856Z,-2.28
2023-04-07T01:34:26.803Z,-1.83
2023-04-07T01:36:26.790Z,-1.83
2023-04-07T01:37:26.826Z,-1.83
2023-04-07T01:39:26.797Z,-1.83
2023-04-07T01:40:26.794Z,-2.17
2023-04-07T01:41:26.859Z,-2.17
2023-04-07T01:42:26.836Z,-1.83
2023-04-07T01:44:26.807Z,-1.56
2023-04-07T01:45:26.809Z,-1.56
2023-04-07T01:46:26.812Z,-2
2023-04-07T01:47:26.997Z,-1.83
2023-04-07T01:48:26.832Z,-2.44
2023-04-07T01:49:26.810Z,-1.83
2023-04-07T01:50:26.807Z,-2.17
2023-04-07T01:51:26.825Z,-2.17
2023-04-07T01:53:26.813Z,-2.17
2023-04-07T01:54:26.822Z,-2.17
2023-04-07T01:55:26.837Z,-2
2023-04-07T01:57:26.826Z,-2.17
2023-04-07T01:58:26.860Z,-2
2023-04-07T01:59:26.825Z,-2.28
2023-04-07T02:00:26.829Z,-2.17
2023-04-07T02:02:26.943Z,-2.28
2023-04-07T02:04:26.844Z,-1.83
2023-04-07T02:05:26.854Z,-2
2023-04-07T02:06:26.832Z,-2.28
2023-04-07T02:07:26.837Z,-2.17
2023-04-07T02:09:26.834Z,-2.17
2023-04-07T02:10:26.855Z,-2.61
2023-04-07T02:11:26.846Z,-2.17
2023-04-07T02:13:26.848Z,-2.17
2023-04-07T02:14:26.865Z,-2.28
2023-04-07T02:16:26.891Z,-2.17
2023-04-07T02:17:26.859Z,-2.17
2023-04-07T02:18:26.870Z,-2.17
2023-04-07T02:19:26.846Z,-2.28
2023-04-07T02:20:26.857Z,-2.17
2023-04-07T02:22:26.853Z,-2.17
2023-04-07T02:23:26.854Z,-2.28
2023-04-07T02:24:26.860Z,-2.17
2023-04-07T02:26:26.858Z,-2.17
2023-04-07T02:27:26.878Z,-2.28
2023-04-07T02:28:26.860Z,-2.28
2023-04-07T02:29:26.881Z,-2.44
2023-04-07T02:30:26.902Z,-2.17
2023-04-07T02:32:26.884Z,-2.61
2023-04-07T02:33:26.866Z,-2.44
2023-04-07T02:34:26.884Z,-2.28
2023-04-07T02:35:26.875Z,-1.83
2023-04-07T02:36:26.888Z,-1.67
2023-04-07T02:37:26.855Z,-1.28
2023-04-07T02:38:26.873Z,-1.28
2023-04-07T02:40:26.882Z,-1.67
2023-04-07T02:41:26.878Z,-2.17
2023-04-07T02:42:26.873Z,-2.17
2023-04-07T02:43:26.886Z,-2.17
2023-04-07T02:44:26.877Z,-2.17
2023-04-07T02:45:26.871Z,-2.17
2023-04-07T02:46:26.966Z,-2.17
2023-04-07T02:47:26.877Z,-2.44
2023-04-07T02:48:26.887Z,-2.28
2023-04-07T02:49:26.871Z,-2.28
2023-04-07T02:50:26.927Z,-2.28
2023-04-07T02:51:26.889Z,-2.44
2023-04-07T02:52:26.874Z,-2.44
2023-04-07T02:53:26.890Z,-2.61
2023-04-07T02:54:26.884Z,-2.72
2023-04-07T02:55:26.889Z,-2.61
2023-04-07T02:56:26.882Z,-2.28
2023-04-07T02:57:26.899Z,-2.17
2023-04-07T02:59:26.895Z,-2.72
2023-04-07T03:00:26.896Z,-3.06
2023-04-07T03:01:26.949Z,-2.44
2023-04-07T03:02:27.011Z,-2.17
2023-04-07T03:03:27.038Z,-2
2023-04-07T03:04:26.910Z,-1.67
2023-04-07T03:05:26.910Z,-1.56
2023-04-07T03:06:26.922Z,-1.67
2023-04-07T03:07:26.897Z,-1.56
2023-04-07T03:08:26.918Z,-1.67
2023-04-07T03:09:26.922Z,-1.44
2023-04-07T03:10:26.919Z,-1.56
2023-04-07T03:12:26.910Z,-1.44
2023-04-07T03:13:26.907Z,-1.83
2023-04-07T03:14:26.919Z,-1.83
2023-04-07T03:16:26.928Z,-2
2023-04-07T03:17:26.922Z,-2
2023-04-07T03:18:26.940Z,-2.44
2023-04-07T03:20:26.930Z,-2.44
2023-04-07T03:21:26.927Z,-2.72
2023-04-07T03:22:26.919Z,-2.72
2023-04-07T03:23:26.931Z,-2.72
2023-04-07T03:24:26.917Z,-2.61
2023-04-07T03:25:26.923Z,-3.06
2023-04-07T03:26:26.937Z,-3.06
2023-04-07T03:27:26.929Z,-2.44
2023-04-07T03:28:26.935Z,-3.06
2023-04-07T03:30:26.943Z,-3.06
2023-04-07T03:31:26.949Z,-2.61
2023-04-07T03:33:26.939Z,-2.44
2023-04-07T03:34:26.960Z,-2.44
2023-04-07T03:36:26.967Z,-2.44
2023-04-07T03:37:26.951Z,-2.72
2023-04-07T03:38:26.954Z,-2.44
2023-04-07T03:40:26.949Z,-2.61
2023-04-07T03:41:26.947Z,-2.61
2023-04-07T03:43:26.962Z,-2.28
2023-04-07T03:44:26.944Z,-2.61
2023-04-07T03:45:26.951Z,-2.28
2023-04-07T03:46:27.071Z,-3.06
2023-04-07T03:47:26.993Z,-2.72
2023-04-07T03:48:28.695Z,-3.06
2023-04-07T03:50:26.988Z,-2.89
2023-04-07T03:52:26.974Z,-2.28
2023-04-07T03:53:26.960Z,-2.44
2023-04-07T03:54:26.969Z,-2.28
2023-04-07T03:55:26.963Z,-2.28
2023-04-07T03:56:28.845Z,-2.44
2023-04-07T03:57:26.965Z,-2.17
2023-04-07T03:58:26.959Z,-2.28
2023-04-07T03:59:26.976Z,-2
2023-04-07T04:00:26.984Z,-1.83
2023-04-07T04:01:27.195Z,-2.28
2023-04-07T04:02:27.066Z,-2.28
2023-04-07T04:03:27.063Z,-2.72
2023-04-07T04:05:26.986Z,-2.89
2023-04-07T04:06:27.001Z,-3.17
2023-04-07T04:07:26.967Z,-3.17
2023-04-07T04:08:26.987Z,-3.17
2023-04-07T04:09:26.981Z,-3.17
2023-04-07T04:11:26.998Z,-3.44
2023-04-07T04:13:26.992Z,-3.28
2023-04-07T04:15:26.983Z,-2.89
2023-04-07T04:16:27.007Z,-2.72
2023-04-07T04:17:27.076Z,-3.06
2023-04-07T04:18:26.997Z,-2.28
2023-04-07T04:20:26.992Z,-2.61
2023-04-07T04:22:27.025Z,-3.06
2023-04-07T04:24:27.010Z,-2.61
2023-04-07T04:25:27.006Z,-2.61
2023-04-07T04:26:26.998Z,-2.61
2023-04-07T04:27:26.999Z,-2.44
2023-04-07T04:29:27.000Z,-2.72
2023-04-07T04:30:27.005Z,-2.61
2023-04-07T04:31:27.031Z,-2.28
2023-04-07T04:32:27.049Z,-2.61
2023-04-07T04:33:27.001Z,-3.17
2023-04-07T04:34:27.003Z,-2.61
2023-04-07T04:35:27.025Z,-2.61
2023-04-07T04:36:27.014Z,-2.72
2023-04-07T04:37:27.010Z,-2.28
2023-04-07T04:38:27.043Z,-2.28
2023-04-07T04:40:27.003Z,-2.17
2023-04-07T04:41:27.010Z,-2.17
2023-04-07T04:42:27.014Z,-2.17
2023-04-07T04:43:27.036Z,-1.67
2023-04-07T04:45:27.011Z,-1.83
2023-04-07T04:46:27.054Z,-2.17
2023-04-07T04:47:27.110Z,-2.17
2023-04-07T04:48:27.023Z,-2.17
2023-04-07T04:50:27.014Z,-2.72
2023-04-07T04:51:27.022Z,-2.61
2023-04-07T04:52:27.012Z,-2.28
2023-04-07T04:53:27.035Z,-2.72
2023-04-07T04:54:27.071Z,-2.44
2023-04-07T04:55:27.019Z,-2.28
2023-04-07T04:56:27.033Z,-2.17
2023-04-07T04:57:27.036Z,-2.44
2023-04-07T04:58:27.034Z,-2.28
2023-04-07T04:59:27.021Z,-2.28
2023-04-07T05:00:27.036Z,-2.17
2023-04-07T05:01:27.030Z,-2.72
2023-04-07T05:02:27.184Z,-2.17
2023-04-07T05:03:27.398Z,-2.17
2023-04-07T05:05:27.029Z,-2.28
2023-04-07T05:06:27.038Z,-2.17
2023-04-07T05:08:27.033Z,-2
2023-04-07T05:09:27.028Z,-1.67
2023-04-07T05:10:27.067Z,-1.56
2023-04-07T05:12:27.039Z,-1.28
2023-04-07T05:13:27.041Z,-1.67
2023-04-07T05:14:27.028Z,-2
2023-04-07T05:15:27.060Z,-2.17
2023-04-07T05:16:27.059Z,-2.17
2023-04-07T05:18:27.038Z,-1.67
2023-04-07T05:20:27.037Z,-2.17
2023-04-07T05:21:27.054Z,-2
2023-04-07T05:22:27.045Z,-1.67
2023-04-07T05:23:27.045Z,-1.83
2023-04-07T05:24:27.040Z,-1.67
2023-04-07T05:25:27.064Z,-1.67
2023-04-07T05:26:27.086Z,-1.44
2023-04-07T05:28:27.053Z,-1.11
2023-04-07T05:29:27.059Z,-1
2023-04-07T05:30:27.045Z,-0.83
2023-04-07T05:31:27.094Z,-0.83
2023-04-07T05:32:27.047Z,-1.28
2023-04-07T05:33:27.055Z,-1.44
2023-04-07T05:34:27.050Z,-1.11
2023-04-07T05:35:27.064Z,-1
2023-04-07T05:36:27.075Z,-1
2023-04-07T05:37:27.063Z,-0.83
2023-04-07T05:39:27.064Z,-1.56
2023-04-07T05:40:27.092Z,-1.11
2023-04-07T05:42:27.098Z,-0.83
2023-04-07T05:43:27.066Z,-0.83
2023-04-07T05:44:27.063Z,-0.56
2023-04-07T05:45:27.088Z,-0.67
2023-04-07T05:47:27.078Z,-0.39
2023-04-07T05:48:27.074Z,-0.39
2023-04-07T05:49:27.061Z,0
2023-04-07T05:50:27.083Z,-0.17
2023-04-07T05:51:27.086Z,0
2023-04-07T05:53:27.071Z,0.28
2023-04-07T05:54:27.077Z,0.28
2023-04-07T05:55:27.086Z,0.17
2023-04-07T05:56:27.080Z,0.44
2023-04-07T05:57:27.079Z,0.72
2023-04-07T05:58:27.139Z,0.72
2023-04-07T05:59:27.069Z,0.72
2023-04-07T06:00:27.084Z,0.72
2023-04-07T06:01:27.985Z,1.06
2023-04-07T06:03:27.145Z,2.17
2023-04-07T06:05:27.130Z,3.44
2023-04-07T06:06:27.093Z,3.83
2023-04-07T06:07:27.092Z,4.17
2023-04-07T06:09:27.096Z,4.89
2023-04-07T06:10:27.086Z,5.61
2023-04-07T06:11:27.082Z,5.33
2023-04-07T06:12:27.087Z,5.5
2023-04-07T06:13:27.102Z,5.89
2023-04-07T06:14:27.126Z,5.78
2023-04-07T06:15:27.083Z,5.83
2023-04-07T06:16:27.138Z,5.33
2023-04-07T06:17:27.108Z,5.33
2023-04-07T06:18:27.089Z,5
2023-04-07T06:20:27.086Z,4.56
2023-04-07T06:22:27.083Z,3.83
2023-04-07T06:23:27.087Z,3.33
2023-04-07T06:24:27.104Z,2.61
2023-04-07T06:25:27.133Z,2.28
2023-04-07T06:27:27.098Z,1.72
2023-04-07T06:28:27.094Z,1.33
2023-04-07T06:29:27.086Z,1.5
2023-04-07T06:30:27.153Z,1.33
2023-04-07T06:32:27.091Z,1.5
2023-04-07T06:33:27.095Z,1.33
2023-04-07T06:35:27.095Z,1.72
2023-04-07T06:36:27.123Z,1.72
2023-04-07T06:37:27.098Z,1.72
2023-04-07T06:39:27.089Z,1.61
2023-04-07T06:40:27.074Z,1.72
2023-04-07T06:41:27.081Z,1.89
2023-04-07T06:42:27.093Z,1.72
2023-04-07T06:43:27.096Z,2.17
2023-04-07T06:44:27.116Z,2
2023-04-07T06:46:27.160Z,2.28
2023-04-07T06:48:27.092Z,3
2023-04-07T06:49:27.099Z,3
2023-04-07T06:50:27.082Z,3.44
2023-04-07T06:51:27.102Z,3.56
2023-04-07T06:53:27.110Z,3.83
2023-04-07T06:55:27.103Z,4
2023-04-07T06:56:27.092Z,4.72
2023-04-07T06:57:27.100Z,5.17
2023-04-07T06:59:27.097Z,5.33
2023-04-07T07:00:27.104Z,5.61
2023-04-07T07:01:27.181Z,5.61
2023-04-07T07:02:27.270Z,4.72
2023-04-07T07:03:27.152Z,4.56
2023-04-07T07:04:27.250Z,5
2023-04-07T07:05:27.106Z,5.17
2023-04-07T07:07:27.116Z,5.33
2023-04-07T07:08:27.108Z,5.44
2023-04-07T07:10:27.322Z,6.39
2023-04-07T07:11:27.121Z,6.39
2023-04-07T07:13:27.114Z,7.28
2023-04-07T07:15:27.133Z,8.33
2023-04-07T07:16:27.124Z,7.44
2023-04-07T07:17:27.141Z,7.89
2023-04-07T07:18:27.306Z,7.89
2023-04-07T07:19:27.104Z,7.72
2023-04-07T07:20:27.113Z,6.83
2023-04-07T07:21:27.119Z,6.39
2023-04-07T07:22:27.118Z,6.72
2023-04-07T07:23:27.116Z,6.39
2023-04-07T07:24:27.114Z,6.83
2023-04-07T07:25:27.113Z,6.39
2023-04-07T07:26:27.126Z,6.39
2023-04-07T07:28:27.136Z,6
2023-04-07T07:29:27.257Z,6.39
2023-04-07T07:30:27.126Z,6.39
2023-04-07T07:32:27.131Z,6.39
2023-04-07T07:33:27.140Z,6.39
2023-04-07T07:34:27.165Z,5.72
2023-04-07T07:35:27.128Z,4.89
2023-04-07T07:36:27.159Z,4.28
2023-04-07T07:37:27.144Z,5.33
2023-04-07T07:38:27.163Z,5.44
2023-04-07T07:39:27.147Z,5.61
2023-04-07T07:40:27.135Z,6
2023-04-07T07:41:27.176Z,5.83
2023-04-07T07:42:27.138Z,6.11
2023-04-07T07:43:27.142Z,6.28
2023-04-07T07:44:27.158Z,6.39
2023-04-07T07:45:27.169Z,6.11
2023-04-07T07:46:27.175Z,5.72
2023-04-07T07:48:27.150Z,5.83
2023-04-07T07:49:27.145Z,5
2023-04-07T07:50:27.177Z,5.33
2023-04-07T07:52:27.184Z,6
2023-04-07T07:54:27.157Z,6
2023-04-07T07:55:27.182Z,6.39
2023-04-07T07:56:27.180Z,6.28
2023-04-07T07:57:27.144Z,6.11
2023-04-07T07:58:27.166Z,6.28
2023-04-07T08:00:27.159Z,6.39
2023-04-07T08:01:27.188Z,5.83
2023-04-07T08:02:27.211Z,5.83
2023-04-07T08:03:27.190Z,6.28
2023-04-07T08:04:27.215Z,6.39
2023-04-07T08:05:27.180Z,6.39
2023-04-07T08:06:27.193Z,5.61
2023-04-07T08:07:27.167Z,6
2023-04-07T08:08:27.173Z,4.89
2023-04-07T08:09:27.166Z,4.72
2023-04-07T08:10:27.183Z,4.44
2023-04-07T08:11:27.159Z,4.89
2023-04-07T08:12:27.177Z,4.72
2023-04-07T08:13:27.177Z,4.28
2023-04-07T08:14:27.179Z,4
2023-04-07T08:15:27.165Z,3.83
2023-04-07T08:16:27.196Z,4.28
2023-04-07T08:17:27.184Z,4.28
2023-04-07T08:18:27.180Z,3.72
2023-04-07T08:20:27.205Z,5.17
2023-04-07T08:22:27.204Z,5.61
2023-04-07T08:23:27.180Z,5.17
2023-04-07T08:24:27.202Z,5.44
2023-04-07T08:25:27.173Z,5
2023-04-07T08:26:27.192Z,5.17
2023-04-07T08:27:27.199Z,4.72
2023-04-07T08:30:27.186Z,5.44
2023-04-07T08:32:27.192Z,4.89
2023-04-07T08:33:27.186Z,5.33
2023-04-07T08:34:27.190Z,5.61
2023-04-07T08:35:27.197Z,5.72
2023-04-07T08:36:27.208Z,5.44
2023-04-07T08:37:27.192Z,5
2023-04-07T08:38:27.216Z,5.17
2023-04-07T08:39:27.187Z,5.17
2023-04-07T08:40:27.194Z,5.33
2023-04-07T08:42:27.189Z,6.56
2023-04-07T08:44:27.248Z,7.22
2023-04-07T08:46:27.238Z,8.17
2023-04-07T08:48:27.196Z,7.89
2023-04-07T08:49:27.214Z,7.72
2023-04-07T08:51:27.206Z,8.33
2023-04-07T08:52:27.195Z,8.44
2023-04-07T08:53:27.202Z,8.61
2023-04-07T08:54:27.250Z,9
2023-04-07T08:55:27.194Z,9.17
2023-04-07T08:56:27.202Z,9
2023-04-07T08:57:27.205Z,9.28
2023-04-07T08:58:27.203Z,9.06
2023-04-07T08:59:27.207Z,9.44
2023-04-07T09:00:27.216Z,9.89
2023-04-07T09:01:27.242Z,9.44
2023-04-07T09:02:27.417Z,8.61
2023-04-07T09:03:27.314Z,8.28
2023-04-07T09:04:27.213Z,8.44
2023-04-07T09:05:27.233Z,9.17
2023-04-07T09:06:27.215Z,9.28
2023-04-07T09:07:27.218Z,9.44
2023-04-07T09:09:27.225Z,8.78
2023-04-07T09:10:27.266Z,8.5
2023-04-07T09:12:27.228Z,8.39
2023-04-07T09:13:27.228Z,8.78
2023-04-07T09:14:27.236Z,8.78
2023-04-07T09:15:27.222Z,9.22
2023-04-07T09:16:27.250Z,8.78
2023-04-07T09:17:27.233Z,8.39
2023-04-07T09:18:27.247Z,8.78
2023-04-07T09:20:27.249Z,9.22
2023-04-07T09:22:27.264Z,8.94
2023-04-07T09:24:27.243Z,7.5
2023-04-07T09:26:27.294Z,7.5
2023-04-07T09:28:27.240Z,7.22
2023-04-07T09:29:27.247Z,7.22
2023-04-07T09:30:27.250Z,7.11
2023-04-07T09:31:27.238Z,7.39
2023-04-07T09:32:27.271Z,7.67
2023-04-07T09:33:27.304Z,7.39
2023-04-07T09:34:27.238Z,7.11
2023-04-07T09:35:27.262Z,7.39
2023-04-07T09:36:27.236Z,7.39
2023-04-07T09:38:27.239Z,7.22
2023-04-07T09:39:27.281Z,7.94
2023-04-07T09:40:27.249Z,8.28
2023-04-07T09:41:27.310Z,8.61
2023-04-07T09:42:27.276Z,8.5
2023-04-07T09:43:27.245Z,8.28
2023-04-07T09:44:27.252Z,8.39
2023-04-07T09:45:33.686Z,7.94
2023-04-07T09:46:27.275Z,7.5
2023-04-07T09:47:27.259Z,7.94
2023-04-07T09:48:27.246Z,8.11
2023-04-07T09:49:27.254Z,8.61
2023-04-07T09:50:27.276Z,8.11
2023-04-07T09:51:27.254Z,8.11
2023-04-07T09:52:27.286Z,8.78
2023-04-07T09:54:27.272Z,8.39
2023-04-07T09:56:27.267Z,7.5
2023-04-07T09:57:27.273Z,7.5
2023-04-07T09:58:27.313Z,7.78
2023-04-07T10:00:27.284Z,7.22
2023-04-07T10:01:27.341Z,7.5
2023-04-07T10:02:27.339Z,7.22
2023-04-07T10:03:27.303Z,7.67
2023-04-07T10:05:27.301Z,7.67
2023-04-07T10:07:27.297Z,7.5
2023-04-07T10:08:27.299Z,7.22
2023-04-07T10:10:27.294Z,7.5
2023-04-07T10:11:27.278Z,7.5
2023-04-07T10:12:27.294Z,7.94
2023-04-07T10:13:27.335Z,8.39
2023-04-07T10:15:27.289Z,7.94
2023-04-07T10:16:27.326Z,7.94
2023-04-07T10:17:27.292Z,7.94
2023-04-07T10:18:27.287Z,7.78
2023-04-07T10:19:27.305Z,8.11
2023-04-07T10:20:27.290Z,8.5
2023-04-07T10:21:27.300Z,8.39
2023-04-07T10:22:27.306Z,8.61
2023-04-07T10:24:27.312Z,8.94
2023-04-07T10:25:27.328Z,8.78
2023-04-07T10:27:27.302Z,8.78
2023-04-07T10:28:27.299Z,8.28
2023-04-07T10:29:27.306Z,8.78
2023-04-07T10:30:27.325Z,8.39
2023-04-07T10:32:27.323Z,9.22
2023-04-07T10:33:27.310Z,9.39
2023-04-07T10:34:27.330Z,8.78
2023-04-07T10:36:27.297Z,9.67
2023-04-07T10:37:27.316Z,9.67
2023-04-07T10:38:27.314Z,9.94
2023-04-07T10:40:27.304Z,10.11
2023-04-07T10:41:27.317Z,10.56
2023-04-07T10:42:27.305Z,10.67
2023-04-07T10:43:27.309Z,10.83
2023-04-07T10:44:27.321Z,10.39
2023-04-07T10:45:27.317Z,10.11
2023-04-07T10:46:27.340Z,9.06
2023-04-07T10:48:27.320Z,9.94
2023-04-07T10:49:27.320Z,8.78
2023-04-07T10:50:27.318Z,9.22
2023-04-07T10:51:27.336Z,9.22
2023-04-07T10:53:27.331Z,8.78
2023-04-07T10:54:29.189Z,8.94
2023-04-07T10:56:27.316Z,9.39
2023-04-07T10:57:27.341Z,9.39
2023-04-07T10:59:27.343Z,9.94
2023-04-07T11:00:27.335Z,9.67
2023-04-07T11:01:27.381Z,10.56
2023-04-07T11:02:27.504Z,11
2023-04-07T11:04:27.424Z,11.83
2023-04-07T11:05:27.360Z,11.61
2023-04-07T11:06:27.318Z,12.11
2023-04-07T11:07:27.328Z,11.72
2023-04-07T11:09:27.337Z,11.72
2023-04-07T11:10:27.329Z,11.44
2023-04-07T11:11:27.335Z,11
2023-04-07T11:13:27.343Z,11.44
2023-04-07T11:14:27.345Z,11.11
2023-04-07T11:16:27.350Z,11.44
2023-04-07T11:18:27.364Z,11.33
2023-04-07T11:20:27.341Z,11.72
2023-04-07T11:21:27.338Z,10.72
2023-04-07T11:22:30.110Z,10
2023-04-07T11:24:27.352Z,10
2023-04-07T11:26:27.331Z,10.72
2023-04-07T11:27:27.348Z,10.72
2023-04-07T11:29:27.355Z,10.44
2023-04-07T11:30:27.331Z,11.06
2023-04-07T11:31:27.462Z,11.5
2023-04-07T11:32:27.392Z,11.78
2023-04-07T11:34:27.360Z,11.5
2023-04-07T11:36:27.375Z,11.61
2023-04-07T11:38:27.346Z,11.78
2023-04-07T11:39:27.338Z,11.61
2023-04-07T11:40:27.342Z,11.06
2023-04-07T11:41:27.350Z,11.17
2023-04-07T11:42:27.340Z,11.5
2023-04-07T11:44:27.345Z,12
2023-04-07T11:46:27.381Z,12.33
2023-04-07T11:47:27.344Z,12.17
2023-04-07T11:48:27.333Z,12
2023-04-07T11:49:27.336Z,12
2023-04-07T11:50:27.371Z,11.61
2023-04-07T11:52:27.329Z,12.5
2023-04-07T11:53:27.346Z,12
2023-04-07T11:54:27.355Z,12.17
2023-04-07T11:56:27.352Z,12.94
2023-04-07T11:57:27.348Z,13.39
2023-04-07T11:58:27.364Z,13.22
2023-04-07T11:59:27.349Z,13.67
2023-04-07T12:00:27.372Z,13.39
2023-04-07T12:01:27.362Z,12
2023-04-07T12:02:27.429Z,11.78
2023-04-07T12:03:27.528Z,11.78
2023-04-07T12:05:27.359Z,11.78
2023-04-07T12:06:27.382Z,11.89
2023-04-07T12:08:27.361Z,14
2023-04-07T12:09:27.380Z,14.44
2023-04-07T12:10:27.349Z,14.11
2023-04-07T12:11:27.364Z,12
2023-04-07T12:13:27.363Z,11.06
2023-04-07T12:14:27.362Z,11.06
2023-04-07T12:17:27.427Z,10.89
2023-04-07T12:18:27.354Z,11.33
2023-04-07T12:19:27.366Z,11.17
2023-04-07T12:20:27.371Z,11.78
2023-04-07T12:21:27.365Z,12.33
2023-04-07T12:22:27.388Z,11.61
2023-04-07T12:24:27.385Z,12
2023-04-07T12:25:27.364Z,12.5
2023-04-07T12:26:27.372Z,12
2023-04-07T12:28:27.372Z,10.33
2023-04-07T12:29:27.366Z,10.17
2023-04-07T12:30:27.376Z,9.56
2023-04-07T12:32:27.384Z,10.33
2023-04-07T12:33:27.372Z,10.33
2023-04-07T12:34:27.365Z,10
2023-04-07T12:35:27.393Z,11.33
2023-04-07T12:36:27.391Z,11.78
2023-04-07T12:37:27.378Z,12
2023-04-07T12:38:27.391Z,10.61
2023-04-07T12:39:27.377Z,10.44
2023-04-07T12:40:27.376Z,10.89
2023-04-07T12:41:27.380Z,10.89
2023-04-07T12:43:27.373Z,11.17
2023-04-07T12:44:27.374Z,10.72
2023-04-07T12:45:27.384Z,10.33
2023-04-07T12:46:27.448Z,10.61
2023-04-07T12:47:27.401Z,10.33
2023-04-07T12:48:27.434Z,10.17
2023-04-07T12:49:27.389Z,10.44
2023-04-07T12:50:27.380Z,11.33
2023-04-07T12:51:27.371Z,11.78
2023-04-07T12:52:27.386Z,10.89
2023-04-07T12:53:27.385Z,11.17
2023-04-07T12:54:27.406Z,10.89
2023-04-07T12:55:27.377Z,11.5
2023-04-07T12:56:27.398Z,11.33
2023-04-07T12:57:27.380Z,10.72
2023-04-07T12:58:27.389Z,10.61
2023-04-07T12:59:27.398Z,10.89
2023-04-07T13:01:27.504Z,11.06
2023-04-07T13:02:27.530Z,10.61
2023-04-07T13:03:27.664Z,10.33
2023-04-07T13:04:27.503Z,10
2023-04-07T13:06:27.390Z,10.33
2023-04-07T13:07:27.396Z,10
2023-04-07T13:08:27.398Z,10.33
2023-04-07T13:09:27.406Z,10.72
2023-04-07T13:10:27.415Z,11.06
2023-04-07T13:12:27.400Z,11.17
2023-04-07T13:13:27.402Z,10.89
2023-04-07T13:14:27.398Z,11.5
2023-04-07T13:16:27.476Z,11.61
2023-04-07T13:17:27.435Z,11.17
2023-04-07T13:18:27.403Z,11.33
2023-04-07T13:19:27.417Z,11.5
2023-04-07T13:20:27.402Z,10.33
2023-04-07T13:21:45.060Z,10.17
2023-04-07T13:23:27.400Z,9.72
2023-04-07T13:24:27.433Z,10.33
2023-04-07T13:25:27.427Z,10.33
2023-04-07T13:26:27.441Z,10.61
2023-04-07T13:28:27.407Z,10.72
2023-04-07T13:29:27.410Z,10.33
2023-04-07T13:30:27.464Z,9.89
2023-04-07T13:31:27.410Z,9.89
2023-04-07T13:32:27.438Z,9.56
2023-04-07T13:34:27.427Z,9.56
2023-04-07T13:35:27.409Z,9.5
2023-04-07T13:36:27.420Z,9.28
2023-04-07T13:37:27.451Z,9.44
2023-04-07T13:39:27.412Z,9.72
2023-04-07T13:40:27.409Z,9.78
2023-04-07T13:41:27.414Z,9.56
2023-04-07T13:42:27.446Z,10
2023-04-07T13:44:27.423Z,10
2023-04-07T13:46:28.705Z,10.33
2023-04-07T13:47:27.484Z,9.72
2023-04-07T13:49:27.422Z,10
2023-04-07T13:50:27.431Z,10
2023-04-07T13:51:27.428Z,10.17
2023-04-07T13:53:27.429Z,10.17
2023-04-07T13:54:27.450Z,10.33
2023-04-07T13:55:27.422Z,10
2023-04-07T13:56:27.432Z,10.33
2023-04-07T13:57:27.440Z,10.33
2023-04-07T13:58:27.467Z,9.56
2023-04-07T14:00:27.425Z,9.17
2023-04-07T14:01:27.470Z,9.28
2023-04-07T14:02:27.527Z,9
2023-04-07T14:03:27.464Z,9.28
2023-04-07T14:04:27.456Z,9.28
2023-04-07T14:05:27.431Z,9
2023-04-07T14:06:27.434Z,9.44
2023-04-07T14:07:27.424Z,9.89
2023-04-07T14:08:27.455Z,9.89
2023-04-07T14:09:27.435Z,9.44
2023-04-07T14:10:27.461Z,9.44
2023-04-07T14:11:27.433Z,9.28
2023-04-07T14:12:27.451Z,9.44
2023-04-07T14:13:27.474Z,9.89
2023-04-07T14:15:27.440Z,9.89
2023-04-07T14:16:27.595Z,9.89
2023-04-07T14:17:27.522Z,9.89
2023-04-07T14:19:27.448Z,10.17
2023-04-07T14:21:27.437Z,11.06
2023-04-07T14:22:27.440Z,10.61
2023-04-07T14:23:36.420Z,9.89
2023-04-07T14:24:27.429Z,9.72
2023-04-07T14:25:27.455Z,9.44
2023-04-07T14:26:27.440Z,9.44
2023-04-07T14:27:28.594Z,9.44
2023-04-07T14:29:27.451Z,9.72
2023-04-07T14:30:27.465Z,9.89
2023-04-07T14:32:27.448Z,9.89
2023-04-07T14:34:27.450Z,9.89
2023-04-07T14:36:27.445Z,10
2023-04-07T14:38:27.469Z,9.56
2023-04-07T14:39:27.455Z,10
2023-04-07T14:40:27.459Z,9.89
2023-04-07T14:41:27.453Z,10
2023-04-07T14:42:27.444Z,10.17
2023-04-07T14:43:27.470Z,9.89
2023-04-07T14:45:27.449Z,10
2023-04-07T14:46:27.523Z,9.89
2023-04-07T14:48:27.452Z,10
2023-04-07T14:49:27.448Z,9.89
2023-04-07T14:50:27.476Z,9.72
2023-04-07T14:51:27.461Z,10.33
2023-04-07T14:52:27.481Z,10
2023-04-07T14:53:27.458Z,9.56
2023-04-07T14:55:27.478Z,9.72
2023-04-07T14:57:27.473Z,9.72
2023-04-07T14:58:27.467Z,9.44
2023-04-07T15:00:27.468Z,9.89
2023-04-07T15:01:27.588Z,9.72
2023-04-07T15:02:27.620Z,9.72
2023-04-07T15:03:27.590Z,9.44
2023-04-07T15:04:27.516Z,9.56
2023-04-07T15:05:27.479Z,9.89
2023-04-07T15:07:27.473Z,9.56
2023-04-07T15:08:27.465Z,9.89
2023-04-07T15:09:27.474Z,10
2023-04-07T15:11:27.489Z,9.44
2023-04-07T15:12:27.459Z,9
2023-04-07T15:13:27.489Z,9.17
2023-04-07T15:15:27.478Z,9.72
2023-04-07T15:16:27.475Z,9.28
2023-04-07T15:17:36.605Z,9.44
2023-04-07T15:18:27.504Z,9.17
2023-04-07T15:19:27.464Z,9
2023-04-07T15:20:27.488Z,8.83
2023-04-07T15:21:27.489Z,9
2023-04-07T15:23:27.468Z,9.17
2023-04-07T15:24:27.489Z,8.83
2023-04-07T15:25:27.468Z,9
2023-04-07T15:26:27.473Z,8.83
2023-04-07T15:27:27.656Z,8.83
2023-04-07T15:29:27.485Z,8.83
2023-04-07T15:30:27.482Z,9
2023-04-07T15:32:27.537Z,9
2023-04-07T15:33:27.465Z,8.83
2023-04-07T15:34:27.500Z,8.67
2023-04-07T15:36:27.535Z,9
2023-04-07T15:37:27.472Z,9
2023-04-07T15:38:27.480Z,8.67
2023-04-07T15:39:27.475Z,9
2023-04-07T15:40:27.472Z,8.44
2023-04-07T15:41:27.481Z,8.17
2023-04-07T15:43:27.483Z,8.33
2023-04-07T15:44:27.496Z,8.33
2023-04-07T15:45:27.485Z,8.33
2023-04-07T15:47:27.488Z,7.89
2023-04-07T15:49:27.481Z,8.17
2023-04-07T15:50:27.518Z,8
2023-04-07T15:51:27.480Z,8.17
2023-04-07T15:52:27.482Z,8.17
2023-04-07T15:53:27.491Z,7.89
2023-04-07T15:54:27.480Z,7.89
2023-04-07T15:56:27.493Z,8
2023-04-07T15:57:27.488Z,8.17
2023-04-07T15:58:27.499Z,8.17
2023-04-07T16:00:27.494Z,7.89
2023-04-07T16:01:27.534Z,7.89
2023-04-07T16:02:27.615Z,8.17
2023-04-07T16:03:27.522Z,7.72
2023-04-07T16:04:27.494Z,7.72
2023-04-07T16:06:27.519Z,8.17
2023-04-07T16:07:27.486Z,7.61
2023-04-07T16:08:27.487Z,8
2023-04-07T16:09:27.489Z,7.89
2023-04-07T16:12:27.492Z,8.17
2023-04-07T16:14:27.503Z,7.89
2023-04-07T16:17:27.511Z,8
2023-04-07T16:19:27.498Z,7.89
2023-04-07T16:21:27.492Z,7.89
2023-04-07T16:22:27.517Z,7.89
2023-04-07T16:23:27.484Z,7.61
2023-04-07T16:24:27.488Z,7.72
2023-04-07T16:26:27.502Z,7.67
2023-04-07T16:27:27.495Z,7.5
2023-04-07T16:28:27.491Z,7.39
2023-04-07T16:30:27.493Z,7.67
2023-04-07T16:31:27.562Z,7.5
2023-04-07T16:32:27.519Z,7.72
2023-04-07T16:33:27.508Z,7.5